Pyatigorsk, Russia
Current Conditions -  °F | °C
As of 9:30 PM on Sunday 23 Nov 2014 (Local Time) from URMM Reporting Station
Overcast Overcast  
Wind Chill: 21°   Ceiling: 1900
Heat Index: 27°   Visibility: 6mi
Dew Point: 25°   Wind: 4mph
Humidity: 93%   Direction: 290°WNW
Pressure: 30.27"   Gusts: NA
Location:  44.05°N, 43.06°E
Report Text: URMM 231830Z 29002MPS 9999 OVC019 M03/M04 Q1025 R30/CLRD70NOSIG RMK MT OBSC QFE740/0987
Loading
Personal Weather Stations






























Interactive Weather Map New forecast layout! Learn more

10-Day Weather Forecast

Advertisements
Track Severe Weather on mobile